sensor_id;sensor_type;location;lat;lon;timestamp;temperature;humidity
26803;DHT22;14378;51.796;5.808;2022-10-22T00:03:22;13.70;99.90
26803;DHT22;14378;51.796;5.808;2022-10-22T00:05:23;13.60;99.90
26803;DHT22;14378;51.796;5.808;2022-10-22T00:07:24;13.60;99.90
26803;DHT22;14378;51.796;5.808;2022-10-22T00:09:26;13.60;99.90
26803;DHT22;14378;51.796;5.808;2022-10-22T00:11:27;13.50;99.90
26803;DHT22;14378;51.796;5.808;2022-10-22T00:13:28;13.50;99.90
26803;DHT22;14378;51.796;5.808;2022-10-22T00:15:30;13.50;99.90
26803;DHT22;14378;51.796;5.808;2022-10-22T00:17:32;13.60;99.90
26803;DHT22;14378;51.796;5.808;2022-10-22T00:19:33;13.50;99.90
26803;DHT22;14378;51.796;5.808;2022-10-22T00:21:34;13.60;99.90
26803;DHT22;14378;51.796;5.808;2022-10-22T00:23:35;13.60;99.90
26803;DHT22;14378;51.796;5.808;2022-10-22T00:25:40;13.60;99.90
26803;DHT22;14378;51.796;5.808;2022-10-22T00:27:41;13.70;99.90
26803;DHT22;14378;51.796;5.808;2022-10-22T00:29:42;13.70;99.90
26803;DHT22;14378;51.796;5.808;2022-10-22T00:31:43;13.70;99.90
26803;DHT22;14378;51.796;5.808;2022-10-22T00:33:50;13.70;99.90
26803;DHT22;14378;51.796;5.808;2022-10-22T00:35:51;13.70;99.90
26803;DHT22;14378;51.796;5.808;2022-10-22T00:37:52;13.80;99.90
26803;DHT22;14378;51.796;5.808;2022-10-22T00:39:53;13.80;99.90
26803;DHT22;14378;51.796;5.808;2022-10-22T00:41:57;13.80;99.90
26803;DHT22;14378;51.796;5.808;2022-10-22T00:44:01;13.80;99.90
26803;DHT22;14378;51.796;5.808;2022-10-22T00:46:02;13.80;99.90
26803;DHT22;14378;51.796;5.808;2022-10-22T00:48:04;13.80;99.90
26803;DHT22;14378;51.796;5.808;2022-10-22T00:50:12;13.80;99.90
26803;DHT22;14378;51.796;5.808;2022-10-22T00:52:14;13.70;99.90
26803;DHT22;14378;51.796;5.808;2022-10-22T00:54:15;13.80;99.90
26803;DHT22;14378;51.796;5.808;2022-10-22T00:56:16;13.80;99.90
26803;DHT22;14378;51.796;5.808;2022-10-22T00:58:19;13.70;99.90
26803;DHT22;14378;51.796;5.808;2022-10-22T01:00:23;13.70;99.90
26803;DHT22;14378;51.796;5.808;2022-10-22T01:02:25;13.70;99.90
26803;DHT22;14378;51.796;5.808;2022-10-22T01:04:27;13.70;99.90
26803;DHT22;14378;51.796;5.808;2022-10-22T01:06:31;13.70;99.90
26803;DHT22;14378;51.796;5.808;2022-10-22T01:11:44;13.70;99.90
26803;DHT22;14378;51.796;5.808;2022-10-22T01:16:41;13.70;99.90
26803;DHT22;14378;51.796;5.808;2022-10-22T01:21:14;13.60;99.90
26803;DHT22;14378;51.796;5.808;2022-10-22T01:30:40;13.60;99.90
26803;DHT22;14378;51.796;5.808;2022-10-22T01:32:53;13.60;99.90
26803;DHT22;14378;51.796;5.808;2022-10-22T01:35:08;13.60;99.90
26803;DHT22;14378;51.796;5.808;2022-10-22T01:37:13;13.60;99.90
26803;DHT22;14378;51.796;5.808;2022-10-22T01:39:17;13.60;99.90
26803;DHT22;14378;51.796;5.808;2022-10-22T01:41:18;13.50;99.90
26803;DHT22;14378;51.796;5.808;2022-10-22T01:43:19;13.50;99.90
26803;DHT22;14378;51.796;5.808;2022-10-22T01:45:21;13.50;99.90
26803;DHT22;14378;51.796;5.808;2022-10-22T01:47:36;13.50;99.90
26803;DHT22;14378;51.796;5.808;2022-10-22T01:52:25;13.50;99.90
26803;DHT22;14378;51.796;5.808;2022-10-22T01:54:58;13.50;99.90
26803;DHT22;14378;51.796;5.808;2022-10-22T01:59:58;13.50;99.90
26803;DHT22;14378;51.796;5.808;2022-10-22T02:04:49;13.50;99.90
26803;DHT22;14378;51.796;5.808;2022-10-22T02:06:57;13.50;99.90
26803;DHT22;14378;51.796;5.808;2022-10-22T02:09:02;13.50;99.90
26803;DHT22;14378;51.796;5.808;2022-10-22T02:11:04;13.50;99.90
26803;DHT22;14378;51.796;5.808;2022-10-22T02:13:11;13.50;99.90
26803;DHT22;14378;51.796;5.808;2022-10-22T02:15:18;13.50;99.90
26803;DHT22;14378;51.796;5.808;2022-10-22T02:17:21;13.50;99.90
26803;DHT22;14378;51.796;5.808;2022-10-22T02:19:37;13.40;99.90
26803;DHT22;14378;51.796;5.808;2022-10-22T02:21:39;13.40;99.90
26803;DHT22;14378;51.796;5.808;2022-10-22T02:23:41;13.40;99.90
26803;DHT22;14378;51.796;5.808;2022-10-22T02:25:46;13.50;99.90
26803;DHT22;14378;51.796;5.808;2022-10-22T02:27:56;13.40;99.90
26803;DHT22;14378;51.796;5.808;2022-10-22T02:30:04;13.40;99.90
26803;DHT22;14378;51.796;5.808;2022-10-22T02:32:09;13.40;99.90
26803;DHT22;14378;51.796;5.808;2022-10-22T02:34:15;13.40;99.90
26803;DHT22;14378;51.796;5.808;2022-10-22T02:36:19;13.40;99.90
26803;DHT22;14378;51.796;5.808;2022-10-22T02:38:21;13.40;99.90
26803;DHT22;14378;51.796;5.808;2022-10-22T02:40:24;13.40;99.90
26803;DHT22;14378;51.796;5.808;2022-10-22T02:42:27;13.40;99.90
26803;DHT22;14378;51.796;5.808;2022-10-22T02:44:31;13.40;99.90
26803;DHT22;14378;51.796;5.808;2022-10-22T02:46:32;13.30;99.90
26803;DHT22;14378;51.796;5.808;2022-10-22T02:48:36;13.40;99.90
26803;DHT22;14378;51.796;5.808;2022-10-22T02:50:37;13.30;99.90
26803;DHT22;14378;51.796;5.808;2022-10-22T02:52:38;13.40;99.90
26803;DHT22;14378;51.796;5.808;2022-10-22T02:54:40;13.30;99.90
26803;DHT22;14378;51.796;5.808;2022-10-22T02:56:41;13.40;99.90
26803;DHT22;14378;51.796;5.808;2022-10-22T02:58:42;13.40;99.90
26803;DHT22;14378;51.796;5.808;2022-10-22T03:00:47;13.40;99.90
26803;DHT22;14378;51.796;5.808;2022-10-22T03:02:48;13.30;99.90
26803;DHT22;14378;51.796;5.808;2022-10-22T03:04:49;13.40;99.90
26803;DHT22;14378;51.796;5.808;2022-10-22T03:06:50;13.40;99.90
26803;DHT22;14378;51.796;5.808;2022-10-22T03:08:54;13.40;99.90
26803;DHT22;14378;51.796;5.808;2022-10-22T03:10:55;13.40;99.90
26803;DHT22;14378;51.796;5.808;2022-10-22T03:12:58;13.40;99.90
26803;DHT22;14378;51.796;5.808;2022-10-22T03:15:03;13.40;99.90
26803;DHT22;14378;51.796;5.808;2022-10-22T03:17:04;13.40;99.90
26803;DHT22;14378;51.796;5.808;2022-10-22T03:19:05;13.40;99.90
26803;DHT22;14378;51.796;5.808;2022-10-22T03:21:30;13.40;99.90
26803;DHT22;14378;51.796;5.808;2022-10-22T03:23:33;13.40;99.90
26803;DHT22;14378;51.796;5.808;2022-10-22T03:25:35;13.40;99.90
26803;DHT22;14378;51.796;5.808;2022-10-22T03:27:38;13.40;99.90
26803;DHT22;14378;51.796;5.808;2022-10-22T03:29:41;13.40;99.90
26803;DHT22;14378;51.796;5.808;2022-10-22T03:31:42;13.40;99.90
26803;DHT22;14378;51.796;5.808;2022-10-22T03:33:46;13.40;99.90
26803;DHT22;14378;51.796;5.808;2022-10-22T03:35:50;13.40;99.90
26803;DHT22;14378;51.796;5.808;2022-10-22T03:37:51;13.40;99.90
26803;DHT22;14378;51.796;5.808;2022-10-22T03:39:54;13.40;99.90
26803;DHT22;14378;51.796;5.808;2022-10-22T03:41:55;13.40;99.90
26803;DHT22;14378;51.796;5.808;2022-10-22T03:43:56;13.40;99.90
26803;DHT22;14378;51.796;5.808;2022-10-22T03:46:02;13.40;99.90
26803;DHT22;14378;51.796;5.808;2022-10-22T03:48:03;13.40;99.90
26803;DHT22;14378;51.796;5.808;2022-10-22T03:50:05;13.40;99.90
26803;DHT22;14378;51.796;5.808;2022-10-22T03:52:11;13.30;99.90
26803;DHT22;14378;51.796;5.808;2022-10-22T03:54:12;13.30;99.90
26803;DHT22;14378;51.796;5.808;2022-10-22T03:56:14;13.30;99.90
26803;DHT22;14378;51.796;5.808;2022-10-22T03:58:15;13.30;99.90
26803;DHT22;14378;51.796;5.808;2022-10-22T04:00:16;13.30;99.90
26803;DHT22;14378;51.796;5.808;2022-10-22T04:02:17;13.30;99.90
26803;DHT22;14378;51.796;5.808;2022-10-22T04:04:19;13.30;99.90
26803;DHT22;14378;51.796;5.808;2022-10-22T04:06:22;13.30;99.90
26803;DHT22;14378;51.796;5.808;2022-10-22T04:08:30;13.30;99.90
26803;DHT22;14378;51.796;5.808;2022-10-22T04:10:31;13.30;99.90
26803;DHT22;14378;51.796;5.808;2022-10-22T04:12:32;13.30;99.90
26803;DHT22;14378;51.796;5.808;2022-10-22T04:14:33;13.30;99.90
26803;DHT22;14378;51.796;5.808;2022-10-22T04:17:00;13.30;99.90
26803;DHT22;14378;51.796;5.808;2022-10-22T04:19:02;13.30;99.90
26803;DHT22;14378;51.796;5.808;2022-10-22T04:21:07;13.30;99.90
26803;DHT22;14378;51.796;5.808;2022-10-22T04:23:09;13.30;99.90
26803;DHT22;14378;51.796;5.808;2022-10-22T04:25:10;13.20;99.90
26803;DHT22;14378;51.796;5.808;2022-10-22T04:27:11;13.20;99.90
26803;DHT22;14378;51.796;5.808;2022-10-22T04:29:15;13.20;99.90
26803;DHT22;14378;51.796;5.808;2022-10-22T04:31:19;13.20;99.90
26803;DHT22;14378;51.796;5.808;2022-10-22T04:33:25;13.20;99.90
26803;DHT22;14378;51.796;5.808;2022-10-22T04:35:26;13.20;99.90
26803;DHT22;14378;51.796;5.808;2022-10-22T04:37:27;13.20;99.90
26803;DHT22;14378;51.796;5.808;2022-10-22T04:39:30;13.20;99.90
26803;DHT22;14378;51.796;5.808;2022-10-22T04:41:33;13.10;99.90
26803;DHT22;14378;51.796;5.808;2022-10-22T04:43:35;13.10;99.90
26803;DHT22;14378;51.796;5.808;2022-10-22T04:45:36;13.10;99.90
26803;DHT22;14378;51.796;5.808;2022-10-22T04:47:38;13.10;99.90
26803;DHT22;14378;51.796;5.808;2022-10-22T04:49:39;13.10;99.90
26803;DHT22;14378;51.796;5.808;2022-10-22T04:51:40;13.10;99.90
26803;DHT22;14378;51.796;5.808;2022-10-22T04:53:44;13.10;99.90
26803;DHT22;14378;51.796;5.808;2022-10-22T04:55:45;13.10;99.90
26803;DHT22;14378;51.796;5.808;2022-10-22T04:57:46;13.10;99.90
26803;DHT22;14378;51.796;5.808;2022-10-22T04:59:47;13.10;99.90
26803;DHT22;14378;51.796;5.808;2022-10-22T05:01:48;13.00;99.90
26803;DHT22;14378;51.796;5.808;2022-10-22T05:03:51;13.10;99.90
26803;DHT22;14378;51.796;5.808;2022-10-22T05:05:53;13.10;99.90
26803;DHT22;14378;51.796;5.808;2022-10-22T05:07:54;13.10;99.90
26803;DHT22;14378;51.796;5.808;2022-10-22T05:10:19;13.10;99.90
26803;DHT22;14378;51.796;5.808;2022-10-22T05:12:22;13.00;99.90
26803;DHT22;14378;51.796;5.808;2022-10-22T05:14:24;13.00;99.90
26803;DHT22;14378;51.796;5.808;2022-10-22T05:16:31;13.00;99.90
26803;DHT22;14378;51.796;5.808;2022-10-22T05:18:42;13.00;99.90
26803;DHT22;14378;51.796;5.808;2022-10-22T05:20:44;13.00;99.90
26803;DHT22;14378;51.796;5.808;2022-10-22T05:22:49;12.90;99.90
26803;DHT22;14378;51.796;5.808;2022-10-22T05:24:50;13.00;99.90
26803;DHT22;14378;51.796;5.808;2022-10-22T05:27:02;12.90;99.90
26803;DHT22;14378;51.796;5.808;2022-10-22T05:29:06;12.90;99.90
26803;DHT22;14378;51.796;5.808;2022-10-22T05:31:10;12.90;99.90
26803;DHT22;14378;51.796;5.808;2022-10-22T05:33:13;12.90;99.90
26803;DHT22;14378;51.796;5.808;2022-10-22T05:35:14;12.90;99.90
26803;DHT22;14378;51.796;5.808;2022-10-22T05:37:16;12.90;99.90
26803;DHT22;14378;51.796;5.808;2022-10-22T05:39:17;12.90;99.90
26803;DHT22;14378;51.796;5.808;2022-10-22T05:41:21;13.00;99.90
26803;DHT22;14378;51.796;5.808;2022-10-22T05:43:27;13.00;99.90
26803;DHT22;14378;51.796;5.808;2022-10-22T05:45:38;13.00;99.90
26803;DHT22;14378;51.796;5.808;2022-10-22T05:47:41;13.00;99.90
26803;DHT22;14378;51.796;5.808;2022-10-22T05:49:42;13.00;99.90
26803;DHT22;14378;51.796;5.808;2022-10-22T05:51:43;13.00;99.90
26803;DHT22;14378;51.796;5.808;2022-10-22T05:53:51;13.00;99.90
26803;DHT22;14378;51.796;5.808;2022-10-22T05:55:58;13.00;99.90
26803;DHT22;14378;51.796;5.808;2022-10-22T05:58:14;13.00;99.90
26803;DHT22;14378;51.796;5.808;2022-10-22T06:00:16;13.00;99.90
26803;DHT22;14378;51.796;5.808;2022-10-22T06:02:18;13.00;99.90
26803;DHT22;14378;51.796;5.808;2022-10-22T06:04:20;13.00;99.90
26803;DHT22;14378;51.796;5.808;2022-10-22T06:06:34;13.00;99.90
26803;DHT22;14378;51.796;5.808;2022-10-22T06:08:37;13.00;99.90
26803;DHT22;14378;51.796;5.808;2022-10-22T06:10:42;13.00;99.90
26803;DHT22;14378;51.796;5.808;2022-10-22T06:12:46;13.00;99.90
26803;DHT22;14378;51.796;5.808;2022-10-22T06:14:48;13.10;99.90
26803;DHT22;14378;51.796;5.808;2022-10-22T06:16:49;13.10;99.90
26803;DHT22;14378;51.796;5.808;2022-10-22T06:18:52;13.10;99.90
26803;DHT22;14378;51.796;5.808;2022-10-22T06:20:53;13.20;99.90
26803;DHT22;14378;51.796;5.808;2022-10-22T06:22:55;13.20;99.90
26803;DHT22;14378;51.796;5.808;2022-10-22T06:24:56;13.20;99.90
26803;DHT22;14378;51.796;5.808;2022-10-22T06:26:57;13.20;99.90
26803;DHT22;14378;51.796;5.808;2022-10-22T06:29:04;13.20;99.90
26803;DHT22;14378;51.796;5.808;2022-10-22T06:31:05;13.20;99.90
26803;DHT22;14378;51.796;5.808;2022-10-22T06:33:09;13.30;99.90
26803;DHT22;14378;51.796;5.808;2022-10-22T06:35:10;13.30;99.90
26803;DHT22;14378;51.796;5.808;2022-10-22T06:37:11;13.30;99.90
26803;DHT22;14378;51.796;5.808;2022-10-22T06:39:16;13.30;99.90
26803;DHT22;14378;51.796;5.808;2022-10-22T06:41:20;13.30;99.90
26803;DHT22;14378;51.796;5.808;2022-10-22T06:43:21;13.40;99.90
26803;DHT22;14378;51.796;5.808;2022-10-22T06:45:22;13.40;99.90
26803;DHT22;14378;51.796;5.808;2022-10-22T06:47:23;13.40;99.90
26803;DHT22;14378;51.796;5.808;2022-10-22T06:49:24;13.40;99.90
26803;DHT22;14378;51.796;5.808;2022-10-22T06:51:26;13.40;99.90
26803;DHT22;14378;51.796;5.808;2022-10-22T06:53:27;13.40;99.90
26803;DHT22;14378;51.796;5.808;2022-10-22T06:55:28;13.40;99.90
26803;DHT22;14378;51.796;5.808;2022-10-22T06:57:32;13.40;99.90
26803;DHT22;14378;51.796;5.808;2022-10-22T06:59:33;13.50;99.90
26803;DHT22;14378;51.796;5.808;2022-10-22T07:01:35;13.50;99.90
26803;DHT22;14378;51.796;5.808;2022-10-22T07:03:38;13.50;99.90
26803;DHT22;14378;51.796;5.808;2022-10-22T07:05:42;13.60;99.90
26803;DHT22;14378;51.796;5.808;2022-10-22T07:07:43;13.60;99.90
26803;DHT22;14378;51.796;5.808;2022-10-22T07:09:44;13.70;99.90
26803;DHT22;14378;51.796;5.808;2022-10-22T07:11:47;13.70;99.90
26803;DHT22;14378;51.796;5.808;2022-10-22T07:13:54;13.80;99.90
26803;DHT22;14378;51.796;5.808;2022-10-22T07:15:56;13.80;99.90
26803;DHT22;14378;51.796;5.808;2022-10-22T07:18:00;13.90;99.90
26803;DHT22;14378;51.796;5.808;2022-10-22T07:20:10;13.90;99.90
26803;DHT22;14378;51.796;5.808;2022-10-22T07:22:12;14.00;99.90
26803;DHT22;14378;51.796;5.808;2022-10-22T07:24:13;14.00;99.90
26803;DHT22;14378;51.796;5.808;2022-10-22T07:26:16;14.00;99.90
26803;DHT22;14378;51.796;5.808;2022-10-22T07:28:18;14.00;99.90
26803;DHT22;14378;51.796;5.808;2022-10-22T07:30:19;14.10;99.90
26803;DHT22;14378;51.796;5.808;2022-10-22T07:32:21;14.10;99.90
26803;DHT22;14378;51.796;5.808;2022-10-22T07:34:22;14.10;99.90
26803;DHT22;14378;51.796;5.808;2022-10-22T07:36:23;14.10;99.90
26803;DHT22;14378;51.796;5.808;2022-10-22T07:38:25;14.10;99.90
26803;DHT22;14378;51.796;5.808;2022-10-22T07:40:29;14.20;99.90
26803;DHT22;14378;51.796;5.808;2022-10-22T07:42:32;14.20;99.90
26803;DHT22;14378;51.796;5.808;2022-10-22T07:44:40;14.20;99.90
26803;DHT22;14378;51.796;5.808;2022-10-22T07:46:51;14.20;99.90
26803;DHT22;14378;51.796;5.808;2022-10-22T07:48:53;14.30;99.90
26803;DHT22;14378;51.796;5.808;2022-10-22T07:50:54;14.30;99.90
26803;DHT22;14378;51.796;5.808;2022-10-22T07:52:56;14.30;99.90
26803;DHT22;14378;51.796;5.808;2022-10-22T07:54:58;14.30;99.90
26803;DHT22;14378;51.796;5.808;2022-10-22T07:57:02;14.40;99.90
26803;DHT22;14378;51.796;5.808;2022-10-22T07:59:03;14.50;99.90
26803;DHT22;14378;51.796;5.808;2022-10-22T08:01:04;14.50;99.90
26803;DHT22;14378;51.796;5.808;2022-10-22T08:03:11;14.50;99.90
26803;DHT22;14378;51.796;5.808;2022-10-22T08:05:15;14.50;99.90
26803;DHT22;14378;51.796;5.808;2022-10-22T08:07:17;14.50;99.90
26803;DHT22;14378;51.796;5.808;2022-10-22T08:09:18;14.60;99.90
26803;DHT22;14378;51.796;5.808;2022-10-22T08:11:19;14.60;99.90
26803;DHT22;14378;51.796;5.808;2022-10-22T08:13:21;14.70;99.90
26803;DHT22;14378;51.796;5.808;2022-10-22T08:15:24;14.80;99.90
26803;DHT22;14378;51.796;5.808;2022-10-22T08:17:26;14.80;99.90
26803;DHT22;14378;51.796;5.808;2022-10-22T08:19:28;14.90;99.90
26803;DHT22;14378;51.796;5.808;2022-10-22T08:21:32;15.00;99.90
26803;DHT22;14378;51.796;5.808;2022-10-22T08:23:32;15.10;99.90
26803;DHT22;14378;51.796;5.808;2022-10-22T08:25:34;15.20;99.90
26803;DHT22;14378;51.796;5.808;2022-10-22T08:27:35;15.30;99.90
26803;DHT22;14378;51.796;5.808;2022-10-22T08:29:36;15.30;99.90
26803;DHT22;14378;51.796;5.808;2022-10-22T08:31:38;15.40;99.90
26803;DHT22;14378;51.796;5.808;2022-10-22T08:33:39;15.40;99.90
26803;DHT22;14378;51.796;5.808;2022-10-22T08:35:47;15.50;99.90
26803;DHT22;14378;51.796;5.808;2022-10-22T08:37:48;15.60;99.90
26803;DHT22;14378;51.796;5.808;2022-10-22T08:39:49;15.60;99.90
26803;DHT22;14378;51.796;5.808;2022-10-22T08:42:13;15.70;99.90
26803;DHT22;14378;51.796;5.808;2022-10-22T08:49:39;15.80;99.90
26803;DHT22;14378;51.796;5.808;2022-10-22T08:51:41;15.90;99.90
26803;DHT22;14378;51.796;5.808;2022-10-22T08:56:05;16.00;99.90
26803;DHT22;14378;51.796;5.808;2022-10-22T09:03:13;16.20;99.90
26803;DHT22;14378;51.796;5.808;2022-10-22T09:07:44;16.30;99.90
26803;DHT22;14378;51.796;5.808;2022-10-22T09:09:51;16.30;99.90
26803;DHT22;14378;51.796;5.808;2022-10-22T09:11:56;16.30;99.90
26803;DHT22;14378;51.796;5.808;2022-10-22T09:14:00;16.30;99.90
26803;DHT22;14378;51.796;5.808;2022-10-22T09:23:21;16.50;99.90
26803;DHT22;14378;51.796;5.808;2022-10-22T09:25:40;16.60;99.90
26803;DHT22;14378;51.796;5.808;2022-10-22T09:27:42;16.60;99.90
26803;DHT22;14378;51.796;5.808;2022-10-22T09:29:56;16.70;99.90
26803;DHT22;14378;51.796;5.808;2022-10-22T09:31:57;16.70;99.90
26803;DHT22;14378;51.796;5.808;2022-10-22T09:33:58;16.70;99.90
26803;DHT22;14378;51.796;5.808;2022-10-22T09:36:05;16.70;99.90
26803;DHT22;14378;51.796;5.808;2022-10-22T09:38:08;16.60;99.90
26803;DHT22;14378;51.796;5.808;2022-10-22T09:40:13;16.60;99.90
26803;DHT22;14378;51.796;5.808;2022-10-22T09:42:16;16.60;99.90
26803;DHT22;14378;51.796;5.808;2022-10-22T09:44:19;16.60;99.90
26803;DHT22;14378;51.796;5.808;2022-10-22T09:46:22;16.60;99.90
26803;DHT22;14378;51.796;5.808;2022-10-22T09:48:39;16.60;99.90
26803;DHT22;14378;51.796;5.808;2022-10-22T09:50:46;16.50;99.90
26803;DHT22;14378;51.796;5.808;2022-10-22T09:53:13;16.50;99.90
26803;DHT22;14378;51.796;5.808;2022-10-22T09:55:18;16.50;99.90
26803;DHT22;14378;51.796;5.808;2022-10-22T09:57:24;16.50;99.90
26803;DHT22;14378;51.796;5.808;2022-10-22T09:59:36;16.50;99.90
26803;DHT22;14378;51.796;5.808;2022-10-22T10:07:00;16.40;99.90
26803;DHT22;14378;51.796;5.808;2022-10-22T10:09:24;16.30;99.90
26803;DHT22;14378;51.796;5.808;2022-10-22T10:11:30;16.30;99.90
26803;DHT22;14378;51.796;5.808;2022-10-22T10:13:50;16.30;99.90
26803;DHT22;14378;51.796;5.808;2022-10-22T10:19:03;16.40;99.90
26803;DHT22;14378;51.796;5.808;2022-10-22T10:21:29;16.40;99.90
26803;DHT22;14378;51.796;5.808;2022-10-22T10:23:54;16.40;99.90
26803;DHT22;14378;51.796;5.808;2022-10-22T10:28:35;16.50;99.90
26803;DHT22;14378;51.796;5.808;2022-10-22T10:37:34;16.70;99.90
26803;DHT22;14378;51.796;5.808;2022-10-22T10:44:44;16.90;99.90
26803;DHT22;14378;51.796;5.808;2022-10-22T10:46:50;16.90;99.90
26803;DHT22;14378;51.796;5.808;2022-10-22T10:49:04;17.00;99.90
26803;DHT22;14378;51.796;5.808;2022-10-22T10:58:52;17.40;99.90
26803;DHT22;14378;51.796;5.808;2022-10-22T11:01:26;17.70;99.90
26803;DHT22;14378;51.796;5.808;2022-10-22T11:06:14;17.90;99.90
26803;DHT22;14378;51.796;5.808;2022-10-22T11:12:35;18.50;99.90
26803;DHT22;14378;51.796;5.808;2022-10-22T11:14:58;18.70;99.90
26803;DHT22;14378;51.796;5.808;2022-10-22T11:17:05;19.00;99.90
26803;DHT22;14378;51.796;5.808;2022-10-22T11:21:49;19.30;99.90
26803;DHT22;14378;51.796;5.808;2022-10-22T11:24:13;19.10;99.90
26803;DHT22;14378;51.796;5.808;2022-10-22T11:28:52;19.10;99.90
26803;DHT22;14378;51.796;5.808;2022-10-22T11:31:14;19.00;99.90
26803;DHT22;14378;51.796;5.808;2022-10-22T11:33:20;18.90;99.90
26803;DHT22;14378;51.796;5.808;2022-10-22T11:35:46;18.90;99.90
26803;DHT22;14378;51.796;5.808;2022-10-22T11:37:48;18.90;99.90
26803;DHT22;14378;51.796;5.808;2022-10-22T11:40:06;18.90;99.90
26803;DHT22;14378;51.796;5.808;2022-10-22T11:42:22;18.90;99.90
26803;DHT22;14378;51.796;5.808;2022-10-22T11:44:23;18.90;99.90
26803;DHT22;14378;51.796;5.808;2022-10-22T11:46:33;18.90;99.90
26803;DHT22;14378;51.796;5.808;2022-10-22T11:48:38;18.90;99.90
26803;DHT22;14378;51.796;5.808;2022-10-22T11:50:50;19.20;99.90
26803;DHT22;14378;51.796;5.808;2022-10-22T11:53:11;19.40;99.90
26803;DHT22;14378;51.796;5.808;2022-10-22T11:57:37;19.70;99.90
26803;DHT22;14378;51.796;5.808;2022-10-22T12:01:54;19.80;99.90
26803;DHT22;14378;51.796;5.808;2022-10-22T12:06:15;20.20;99.90
26803;DHT22;14378;51.796;5.808;2022-10-22T12:08:24;20.40;99.90
26803;DHT22;14378;51.796;5.808;2022-10-22T12:10:33;20.40;99.90
26803;DHT22;14378;51.796;5.808;2022-10-22T12:12:38;20.50;99.90
26803;DHT22;14378;51.796;5.808;2022-10-22T12:14:56;20.50;99.90
26803;DHT22;14378;51.796;5.808;2022-10-22T12:19:14;20.50;99.90
26803;DHT22;14378;51.796;5.808;2022-10-22T12:21:19;20.50;99.90
26803;DHT22;14378;51.796;5.808;2022-10-22T12:23:29;20.50;99.90
26803;DHT22;14378;51.796;5.808;2022-10-22T12:25:31;20.50;99.90
26803;DHT22;14378;51.796;5.808;2022-10-22T12:27:36;20.30;99.90
26803;DHT22;14378;51.796;5.808;2022-10-22T12:29:37;20.30;99.90
26803;DHT22;14378;51.796;5.808;2022-10-22T12:31:41;20.30;99.90
26803;DHT22;14378;51.796;5.808;2022-10-22T12:33:42;20.20;99.90
26803;DHT22;14378;51.796;5.808;2022-10-22T12:35:46;20.20;99.90
26803;DHT22;14378;51.796;5.808;2022-10-22T12:37:59;20.20;99.90
26803;DHT22;14378;51.796;5.808;2022-10-22T12:40:15;20.20;99.90
26803;DHT22;14378;51.796;5.808;2022-10-22T12:42:17;20.10;99.90
26803;DHT22;14378;51.796;5.808;2022-10-22T12:44:18;19.90;99.90
26803;DHT22;14378;51.796;5.808;2022-10-22T12:46:19;19.80;99.90
26803;DHT22;14378;51.796;5.808;2022-10-22T12:48:24;19.80;99.90
26803;DHT22;14378;51.796;5.808;2022-10-22T12:50:39;20.00;99.90
26803;DHT22;14378;51.796;5.808;2022-10-22T12:52:43;20.10;99.90
26803;DHT22;14378;51.796;5.808;2022-10-22T12:54:46;20.10;99.90
26803;DHT22;14378;51.796;5.808;2022-10-22T12:56:47;20.10;99.90
26803;DHT22;14378;51.796;5.808;2022-10-22T12:59:03;20.00;99.90
26803;DHT22;14378;51.796;5.808;2022-10-22T13:01:04;19.90;99.90
26803;DHT22;14378;51.796;5.808;2022-10-22T13:03:06;19.80;99.90
26803;DHT22;14378;51.796;5.808;2022-10-22T13:11:19;19.30;99.90
26803;DHT22;14378;51.796;5.808;2022-10-22T13:13:39;19.30;99.90
26803;DHT22;14378;51.796;5.808;2022-10-22T13:15:42;19.30;99.90
26803;DHT22;14378;51.796;5.808;2022-10-22T13:17:43;19.30;99.90
26803;DHT22;14378;51.796;5.808;2022-10-22T13:21:57;19.40;99.90
26803;DHT22;14378;51.796;5.808;2022-10-22T13:24:00;19.40;99.90
26803;DHT22;14378;51.796;5.808;2022-10-22T13:26:03;19.30;99.90
26803;DHT22;14378;51.796;5.808;2022-10-22T13:28:21;19.30;99.90
26803;DHT22;14378;51.796;5.808;2022-10-22T13:30:35;19.30;99.90
26803;DHT22;14378;51.796;5.808;2022-10-22T13:32:36;19.40;99.90
26803;DHT22;14378;51.796;5.808;2022-10-22T13:34:39;19.40;99.90
26803;DHT22;14378;51.796;5.808;2022-10-22T13:36:41;19.40;99.90
26803;DHT22;14378;51.796;5.808;2022-10-22T13:38:42;19.30;99.90
26803;DHT22;14378;51.796;5.808;2022-10-22T13:40:45;19.30;99.90
26803;DHT22;14378;51.796;5.808;2022-10-22T13:42:46;19.30;99.90
26803;DHT22;14378;51.796;5.808;2022-10-22T13:44:50;19.30;99.90
26803;DHT22;14378;51.796;5.808;2022-10-22T13:46:52;19.40;99.90
26803;DHT22;14378;51.796;5.808;2022-10-22T13:48:55;19.50;99.90
26803;DHT22;14378;51.796;5.808;2022-10-22T13:50:56;19.70;99.90
26803;DHT22;14378;51.796;5.808;2022-10-22T13:52:57;19.80;99.90
26803;DHT22;14378;51.796;5.808;2022-10-22T13:55:00;19.90;99.90
26803;DHT22;14378;51.796;5.808;2022-10-22T13:57:04;20.00;99.90
26803;DHT22;14378;51.796;5.808;2022-10-22T13:59:05;20.00;99.90
26803;DHT22;14378;51.796;5.808;2022-10-22T14:01:28;20.00;99.90
26803;DHT22;14378;51.796;5.808;2022-10-22T14:03:33;20.00;99.90
26803;DHT22;14378;51.796;5.808;2022-10-22T14:05:35;19.90;99.90
26803;DHT22;14378;51.796;5.808;2022-10-22T14:07:38;19.90;99.90
26803;DHT22;14378;51.796;5.808;2022-10-22T14:09:40;19.80;99.90
26803;DHT22;14378;51.796;5.808;2022-10-22T14:11:42;19.90;99.90
26803;DHT22;14378;51.796;5.808;2022-10-22T14:13:44;19.70;99.90
26803;DHT22;14378;51.796;5.808;2022-10-22T14:15:47;19.70;99.90
26803;DHT22;14378;51.796;5.808;2022-10-22T14:17:55;19.60;99.90
26803;DHT22;14378;51.796;5.808;2022-10-22T14:19:57;19.60;99.90
26803;DHT22;14378;51.796;5.808;2022-10-22T14:21:58;19.60;99.90
26803;DHT22;14378;51.796;5.808;2022-10-22T14:24:03;19.60;99.90
26803;DHT22;14378;51.796;5.808;2022-10-22T14:26:05;19.60;99.90
26803;DHT22;14378;51.796;5.808;2022-10-22T14:28:11;19.60;99.90
26803;DHT22;14378;51.796;5.808;2022-10-22T14:30:25;19.60;99.90
26803;DHT22;14378;51.796;5.808;2022-10-22T14:32:27;19.60;99.90
26803;DHT22;14378;51.796;5.808;2022-10-22T14:34:28;19.70;99.90
26803;DHT22;14378;51.796;5.808;2022-10-22T14:36:31;19.70;99.90
26803;DHT22;14378;51.796;5.808;2022-10-22T14:38:33;19.80;99.90
26803;DHT22;14378;51.796;5.808;2022-10-22T14:40:35;19.80;99.90
26803;DHT22;14378;51.796;5.808;2022-10-22T14:42:41;19.80;99.90
26803;DHT22;14378;51.796;5.808;2022-10-22T14:44:42;19.90;99.90
26803;DHT22;14378;51.796;5.808;2022-10-22T14:46:43;19.80;99.90
26803;DHT22;14378;51.796;5.808;2022-10-22T14:48:46;19.80;99.90
26803;DHT22;14378;51.796;5.808;2022-10-22T14:50:47;19.80;99.90
26803;DHT22;14378;51.796;5.808;2022-10-22T14:52:49;19.70;99.90
26803;DHT22;14378;51.796;5.808;2022-10-22T14:54:51;19.70;99.90
26803;DHT22;14378;51.796;5.808;2022-10-22T14:56:53;19.60;99.90